createdAt,value
2023-04-18T00:00:05.524Z,50.16
2023-04-18T00:02:17.199Z,50.70
2023-04-18T00:04:20.513Z,49.65
2023-04-18T00:06:24.131Z,49.58
2023-04-18T00:08:28.304Z,49.69
2023-04-18T00:10:31.111Z,50.44
2023-04-18T00:12:36.342Z,49.95
2023-04-18T00:14:40.998Z,49.82
2023-04-18T00:16:43.819Z,49.86
2023-04-18T00:18:48.123Z,49.93
2023-04-18T00:20:50.875Z,50.53
2023-04-18T00:22:54.946Z,50.75
2023-04-18T00:24:57.741Z,51.23
2023-04-18T00:27:01.569Z,50.25
2023-04-18T00:29:06.104Z,50.01
2023-04-18T00:31:11.674Z,50.30
2023-04-18T00:33:14.521Z,50.10
2023-04-18T00:35:17.342Z,50.19
2023-04-18T00:37:22.220Z,50.33
2023-04-18T00:39:25.568Z,50.71
2023-04-18T00:41:31.261Z,50.41
2023-04-18T00:43:35.069Z,50.38
2023-04-18T00:45:39.235Z,51.11
2023-04-18T00:47:42.069Z,50.41
2023-04-18T00:49:45.429Z,51.11
2023-04-18T00:51:48.915Z,50.46
2023-04-18T00:53:51.891Z,50.77
2023-04-18T00:55:54.815Z,50.79
2023-04-18T00:57:57.631Z,50.84
2023-04-18T01:00:01.853Z,51.56
2023-04-18T01:02:06.356Z,50.90
2023-04-18T01:04:10.404Z,49.81
2023-04-18T01:06:13.716Z,49.57
2023-04-18T01:08:17.152Z,50.48
2023-04-18T01:10:20.901Z,49.99
2023-04-18T01:12:25.794Z,50.22
2023-04-18T01:14:30.329Z,50.98
2023-04-18T01:16:33.613Z,51.40
2023-04-18T01:18:40.162Z,51.29
2023-04-18T01:20:46.751Z,51.29
2023-04-18T01:22:49.609Z,51.76
2023-04-18T01:24:53.774Z,51.32
2023-04-18T01:26:57.162Z,50.70
2023-04-18T01:28:59.939Z,51.41
2023-04-18T01:31:02.755Z,51.65
2023-04-18T01:33:06.492Z,51.62
2023-04-18T01:35:10.220Z,51.23
2023-04-18T01:37:13.057Z,51.78
2023-04-18T01:39:18.237Z,51.21
2023-04-18T01:41:23.108Z,51.45
2023-04-18T01:43:25.871Z,51.66
2023-04-18T01:45:28.755Z,51.76
2023-04-18T01:47:31.653Z,52.16
2023-04-18T01:49:36.830Z,52.42
2023-04-18T01:51:39.898Z,51.99
2023-04-18T01:53:42.913Z,52.84
2023-04-18T01:55:45.695Z,52.27
2023-04-18T01:57:50.758Z,52.15
2023-04-18T01:59:53.554Z,51.17
2023-04-18T02:01:56.466Z,51.05
2023-04-18T02:04:00.436Z,51.08
2023-04-18T02:06:05.017Z,51.24
2023-04-18T02:08:07.831Z,51.13
2023-04-18T02:10:11.270Z,52.03
2023-04-18T02:12:14.085Z,52.58
2023-04-18T02:14:18.328Z,52.35
2023-04-18T02:16:21.397Z,51.92
2023-04-18T02:18:25.722Z,51.60
2023-04-18T02:20:31.718Z,51.99
2023-04-18T02:22:38.095Z,51.86
2023-04-18T02:24:40.941Z,51.93
2023-04-18T02:26:44.439Z,51.56
2023-04-18T02:28:47.267Z,51.56
2023-04-18T02:30:51.433Z,51.83
2023-04-18T02:32:54.802Z,51.76
2023-04-18T02:34:59.918Z,52.42
2023-04-18T02:37:02.735Z,52.03
2023-04-18T02:39:05.583Z,52.12
2023-04-18T02:41:08.348Z,52.73
2023-04-18T02:43:11.195Z,52.37
2023-04-18T02:45:14.076Z,51.63
2023-04-18T02:47:18.159Z,52.22
2023-04-18T02:49:22.685Z,52.59
2023-04-18T02:51:26.780Z,51.71
2023-04-18T02:53:29.924Z,52.41
2023-04-18T02:55:33.023Z,52.55
2023-04-18T02:57:37.122Z,52.95
2023-04-18T03:00:00.208Z,52.45
2023-04-18T03:02:23.300Z,52.39
2023-04-18T03:04:31.805Z,53.03
2023-04-18T03:06:37.308Z,52.90
2023-04-18T03:08:41.011Z,52.50
2023-04-18T03:10:44.833Z,51.53
2023-04-18T03:12:47.916Z,52.48
2023-04-18T03:14:53.070Z,52.46
2023-04-18T03:16:57.125Z,53.26
2023-04-18T03:19:06.289Z,52.90
2023-04-18T03:21:09.687Z,52.67
2023-04-18T03:23:12.985Z,53.23
2023-04-18T03:25:16.088Z,52.54
2023-04-18T03:27:28.582Z,52.69
2023-04-18T03:29:31.511Z,53.70
2023-04-18T03:31:34.758Z,53.15
2023-04-18T03:33:39.130Z,53.23
2023-04-18T03:35:47.029Z,52.85
2023-04-18T03:37:49.912Z,53.77
2023-04-18T03:39:59.758Z,54.02
2023-04-18T03:42:04.539Z,53.32
2023-04-18T03:44:07.405Z,53.88
2023-04-18T03:46:12.605Z,54.09
2023-04-18T03:48:15.567Z,53.44
2023-04-18T03:50:20.381Z,53.87
2023-04-18T03:52:27.521Z,53.86
2023-04-18T03:54:32.049Z,53.71
2023-04-18T03:56:35.036Z,54.37
2023-04-18T03:58:38.100Z,54.45
2023-04-18T04:00:41.092Z,54.31
2023-04-18T04:02:46.757Z,54.52
2023-04-18T04:04:55.784Z,54.36
2023-04-18T04:06:59.367Z,55.02
2023-04-18T04:09:03.958Z,55.51
2023-04-18T04:11:06.893Z,55.25
2023-04-18T04:13:09.691Z,55.67
2023-04-18T04:15:15.393Z,54.60
2023-04-18T04:17:25.394Z,55.20
2023-04-18T04:19:28.836Z,55.13
2023-04-18T04:21:42.574Z,54.96
2023-04-18T04:23:48.810Z,54.97
2023-04-18T04:26:04.578Z,55.84
2023-04-18T04:28:16.820Z,55.46
2023-04-18T04:30:28.565Z,55.58
2023-04-18T04:32:32.967Z,56.15
2023-04-18T04:34:36.760Z,56.48
2023-04-18T04:36:43.104Z,56.71
2023-04-18T04:38:48.355Z,56.20
2023-04-18T04:40:52.935Z,56.28
2023-04-18T04:42:58.504Z,56.95
2023-04-18T04:45:09.257Z,57.01
2023-04-18T04:47:12.177Z,56.84
2023-04-18T04:49:15.734Z,57.56
2023-04-18T04:51:18.525Z,57.71
2023-04-18T04:53:21.412Z,57.40
2023-04-18T04:55:24.480Z,57.46
2023-04-18T04:57:27.309Z,57.80
2023-04-18T04:59:31.442Z,57.38
2023-04-18T05:01:34.370Z,57.25
2023-04-18T05:03:37.530Z,57.40
2023-04-18T05:05:40.765Z,57.74
2023-04-18T05:07:43.552Z,57.46
2023-04-18T05:09:46.271Z,57.57
2023-04-18T05:11:49.476Z,57.29
2023-04-18T05:13:52.268Z,57.23
2023-04-18T05:15:56.688Z,57.41
2023-04-18T05:17:59.738Z,57.20
2023-04-18T05:20:02.617Z,57.04
2023-04-18T05:22:05.428Z,57.29
2023-04-18T05:24:08.439Z,57.81
2023-04-18T05:26:11.198Z,57.92
2023-04-18T05:28:14.050Z,57.92
2023-04-18T05:30:17.029Z,57.90
2023-04-18T05:32:21.231Z,57.38
2023-04-18T05:34:24.117Z,57.66
2023-04-18T05:36:26.882Z,58.01
2023-04-18T05:38:29.621Z,58.58
2023-04-18T05:40:32.502Z,57.86
2023-04-18T05:42:35.508Z,57.95
2023-04-18T05:44:38.424Z,57.82
2023-04-18T05:46:41.317Z,57.91
2023-04-18T05:48:45.503Z,58.30
2023-04-18T05:50:48.396Z,58.58
2023-04-18T05:52:51.291Z,58.74
2023-04-18T05:54:54.262Z,58.69
2023-04-18T05:56:57.172Z,58.94
2023-04-18T05:58:59.872Z,58.27
2023-04-18T06:01:02.811Z,58.52
2023-04-18T06:03:07.872Z,58.03
2023-04-18T06:05:14.277Z,58.11
2023-04-18T06:07:17.712Z,58.17
2023-04-18T06:09:20.745Z,58.04
2023-04-18T06:11:23.660Z,58.51
2023-04-18T06:13:26.476Z,57.87
2023-04-18T06:15:29.725Z,57.94
2023-04-18T06:17:32.684Z,57.73
2023-04-18T06:19:35.456Z,58.42
2023-04-18T06:21:41.905Z,58.41
2023-04-18T06:23:44.712Z,58.85
2023-04-18T06:25:47.562Z,58.71
2023-04-18T06:27:50.373Z,59.28
2023-04-18T06:29:53.240Z,58.47
2023-04-18T06:31:57.388Z,58.04
2023-04-18T06:34:00.219Z,58.84
2023-04-18T06:36:03.028Z,59.39
2023-04-18T06:38:07.162Z,59.46
2023-04-18T06:40:11.435Z,58.36
2023-04-18T06:42:14.249Z,58.86
2023-04-18T06:44:20.946Z,58.91
2023-04-18T06:46:24.077Z,58.70
2023-04-18T06:48:26.921Z,58.82
2023-04-18T06:50:30.541Z,59.69
2023-04-18T06:52:33.382Z,59.28
2023-04-18T06:54:37.488Z,59.24
2023-04-18T06:56:40.436Z,59.46
2023-04-18T06:58:43.166Z,59.08
2023-04-18T07:00:48.789Z,59.55
2023-04-18T07:02:51.629Z,58.97
2023-04-18T07:04:54.470Z,58.94
2023-04-18T07:06:57.316Z,59.46
2023-04-18T07:09:01.497Z,59.00
2023-04-18T07:11:06.552Z,59.31
2023-04-18T07:13:09.405Z,59.34
2023-04-18T07:15:12.811Z,59.20
2023-04-18T07:17:15.636Z,59.32
2023-04-18T07:19:18.666Z,59.11
2023-04-18T07:21:21.427Z,59.37
2023-04-18T07:23:24.223Z,59.49
2023-04-18T07:25:27.116Z,60.19
2023-04-18T07:27:31.290Z,59.59
2023-04-18T07:29:34.263Z,59.37
2023-04-18T07:31:37.096Z,59.65
2023-04-18T07:33:40.012Z,59.69
2023-04-18T07:35:45.835Z,59.81
2023-04-18T07:37:48.743Z,59.54
2023-04-18T07:39:52.114Z,59.35
2023-04-18T07:41:54.908Z,59.33
2023-04-18T07:43:59.176Z,59.73
2023-04-18T07:46:02.286Z,58.91
2023-04-18T07:48:05.750Z,59.24
2023-04-18T07:50:10.231Z,59.40
2023-04-18T07:52:13.073Z,59.99
2023-04-18T07:54:15.910Z,59.29
2023-04-18T07:56:18.670Z,59.59
2023-04-18T07:58:21.563Z,60.32
2023-04-18T08:00:26.301Z,60.32
2023-04-18T08:02:29.070Z,59.41
2023-04-18T08:04:32.097Z,59.46
2023-04-18T08:06:35.592Z,59.03
2023-04-18T08:08:38.366Z,58.96
2023-04-18T08:10:41.199Z,59.25
2023-04-18T08:12:44.074Z,59.24
2023-04-18T08:14:46.826Z,60.41
2023-04-18T08:16:50.932Z,60.24
2023-04-18T08:18:53.788Z,60.32
2023-04-18T08:20:56.643Z,60.12
2023-04-18T08:23:05.682Z,59.87
2023-04-18T08:25:10.283Z,59.56
2023-04-18T08:27:13.077Z,58.83
2023-04-18T08:29:15.954Z,58.46
2023-04-18T08:31:19.047Z,58.73
2023-04-18T08:33:24.279Z,59.22
2023-04-18T08:35:27.243Z,58.08
2023-04-18T08:37:30.205Z,58.20
2023-04-18T08:39:32.995Z,58.95
2023-04-18T08:41:38.014Z,58.55
2023-04-18T08:43:40.855Z,58.76
2023-04-18T08:45:44.360Z,59.45
2023-04-18T08:47:47.391Z,59.12
2023-04-18T08:49:52.133Z,58.78
2023-04-18T08:51:57.373Z,59.56
2023-04-18T08:54:04.209Z,59.14
2023-04-18T08:56:10.489Z,59.68
2023-04-18T08:58:13.831Z,58.40
2023-04-18T09:00:18.646Z,58.01
2023-04-18T09:02:23.265Z,57.95
2023-04-18T09:04:35.974Z,57.36
2023-04-18T09:06:52.802Z,57.86
2023-04-18T09:08:59.533Z,57.78
2023-04-18T09:11:28.891Z,57.11
2023-04-18T09:13:41.038Z,56.95
2023-04-18T09:15:56.091Z,56.39
2023-04-18T09:18:02.176Z,55.81
2023-04-18T09:20:09.782Z,53.51
2023-04-18T09:22:14.221Z,54.45
2023-04-18T09:24:24.003Z,53.53
2023-04-18T09:26:34.589Z,54.06
2023-04-18T09:28:37.536Z,53.76
2023-04-18T09:30:42.230Z,54.39
2023-04-18T09:32:45.454Z,54.89
2023-04-18T09:34:48.268Z,55.35
2023-04-18T09:37:06.692Z,56.43
2023-04-18T09:39:11.042Z,56.30
2023-04-18T09:41:19.037Z,56.74
2023-04-18T09:43:23.558Z,56.88
2023-04-18T09:45:27.405Z,56.53
2023-04-18T09:47:30.707Z,55.64
2023-04-18T09:49:33.683Z,56.04
2023-04-18T09:51:36.705Z,56.12
2023-04-18T09:53:40.945Z,54.94
2023-04-18T09:55:46.070Z,55.00
2023-04-18T09:57:49.703Z,53.87
2023-04-18T09:59:59.911Z,54.19
2023-04-18T10:02:04.296Z,54.72
2023-04-18T10:04:07.961Z,55.18
2023-04-18T10:06:12.679Z,55.27
2023-04-18T10:08:16.006Z,54.82
2023-04-18T10:10:19.163Z,54.98
2023-04-18T10:12:24.323Z,55.60
2023-04-18T10:14:28.542Z,55.97
2023-04-18T10:16:34.194Z,56.37
2023-04-18T10:18:38.466Z,56.41
2023-04-18T10:20:42.556Z,56.34
2023-04-18T10:22:45.335Z,56.44
2023-04-18T10:24:54.054Z,56.37
2023-04-18T10:26:57.851Z,56.19
2023-04-18T10:29:02.515Z,55.64
2023-04-18T10:31:05.756Z,55.47
2023-04-18T10:33:31.103Z,55.59
2023-04-18T10:35:36.411Z,55.02
2023-04-18T10:37:51.138Z,55.88
2023-04-18T10:40:00.218Z,56.16
2023-04-18T10:42:03.062Z,55.80
2023-04-18T10:44:15.831Z,55.16
2023-04-18T10:46:30.894Z,54.02
2023-04-18T10:51:14.795Z,55.11
2023-04-18T10:53:17.709Z,55.88
2023-04-18T10:55:27.164Z,55.21
2023-04-18T10:57:39.743Z,55.27
2023-04-18T10:59:49.166Z,55.49
2023-04-18T11:01:57.764Z,55.92
2023-04-18T11:04:01.399Z,56.10
2023-04-18T11:06:05.033Z,55.00
2023-04-18T11:08:23.610Z,54.06
2023-04-18T11:10:27.715Z,53.56
2023-04-18T11:12:32.398Z,54.39
2023-04-18T11:14:41.390Z,53.86
2023-04-18T11:16:45.642Z,53.63
2023-04-18T11:18:48.432Z,52.92
2023-04-18T11:20:52.534Z,53.06
2023-04-18T11:22:57.153Z,53.01
2023-04-18T11:25:00.883Z,52.84
2023-04-18T11:27:04.901Z,53.73
2023-04-18T11:29:07.707Z,53.55
2023-04-18T11:31:10.628Z,52.24
2023-04-18T11:33:15.439Z,53.04
2023-04-18T11:35:18.605Z,52.54
2023-04-18T11:37:21.519Z,52.21
2023-04-18T11:39:24.429Z,52.54
2023-04-18T11:41:27.314Z,52.69
2023-04-18T11:43:30.458Z,53.35
2023-04-18T11:45:33.417Z,53.18
2023-04-18T11:47:36.375Z,52.28
2023-04-18T11:49:40.589Z,52.15
2023-04-18T11:51:46.221Z,50.29
2023-04-18T11:53:49.055Z,50.19
2023-04-18T11:55:56.382Z,51.44
2023-04-18T11:58:00.428Z,50.95
2023-04-18T12:00:06.806Z,50.77
2023-04-18T12:02:16.730Z,50.76
2023-04-18T12:04:20.200Z,50.22
2023-04-18T12:06:25.203Z,50.86
2023-04-18T12:08:28.133Z,51.20
2023-04-18T12:10:31.064Z,51.13
2023-04-18T12:12:34.130Z,50.29
2023-04-18T12:14:36.985Z,48.98
2023-04-18T12:16:39.831Z,49.60
2023-04-18T12:18:42.674Z,50.00
2023-04-18T12:20:50.283Z,49.53
2023-04-18T12:22:55.560Z,49.99
2023-04-18T12:25:09.792Z,50.64
2023-04-18T12:27:13.022Z,49.33
2023-04-18T12:29:15.872Z,50.27
2023-04-18T12:31:18.788Z,49.24
2023-04-18T12:33:21.649Z,48.92
2023-04-18T12:35:25.622Z,50.05
2023-04-18T12:37:28.415Z,49.48
2023-04-18T12:39:32.827Z,50.16
2023-04-18T12:41:35.619Z,50.79
2023-04-18T12:43:38.423Z,50.58
2023-04-18T12:45:41.249Z,49.71
2023-04-18T12:47:45.689Z,49.06
2023-04-18T12:49:48.487Z,49.00
2023-04-18T12:51:51.317Z,48.23
2023-04-18T12:53:54.099Z,48.96
2023-04-18T12:55:58.455Z,49.40
2023-04-18T12:58:01.555Z,49.21
2023-04-18T13:00:07.893Z,48.37
2023-04-18T13:02:10.900Z,49.05
2023-04-18T13:04:14.111Z,49.41
2023-04-18T13:06:17.157Z,49.03
2023-04-18T13:08:20.084Z,48.54
2023-04-18T13:10:24.655Z,49.53
2023-04-18T13:12:30.374Z,48.11
2023-04-18T13:14:33.164Z,48.64
2023-04-18T13:16:36.090Z,49.63
2023-04-18T13:18:39.022Z,47.85
2023-04-18T13:21:31.819Z,49.37
2023-04-18T13:23:34.684Z,49.10
2023-04-18T13:25:37.565Z,48.87
2023-04-18T13:27:42.389Z,48.83
2023-04-18T13:29:45.618Z,49.04
2023-04-18T13:31:48.468Z,50.04
2023-04-18T13:33:51.678Z,48.58
2023-04-18T13:35:54.602Z,49.69
2023-04-18T13:37:57.454Z,49.57
2023-04-18T13:40:00.332Z,48.84
2023-04-18T13:42:04.361Z,48.74
2023-04-18T13:44:08.871Z,50.08
2023-04-18T13:46:12.693Z,49.30
2023-04-18T13:48:16.365Z,49.05
2023-04-18T13:50:20.217Z,48.87
2023-04-18T13:52:23.331Z,49.60
2023-04-18T13:54:26.787Z,49.45
2023-04-18T13:56:29.712Z,49.00
2023-04-18T13:58:32.632Z,49.14
2023-04-18T14:00:36.783Z,49.68
2023-04-18T14:02:39.846Z,50.04
2023-04-18T14:04:42.857Z,50.25
2023-04-18T14:06:47.348Z,48.53
2023-04-18T14:08:51.738Z,49.39
2023-04-18T14:10:54.578Z,48.93
2023-04-18T14:12:57.801Z,48.56
2023-04-18T14:15:00.774Z,48.18
2023-04-18T14:17:05.038Z,48.73
2023-04-18T14:19:07.921Z,49.13
2023-04-18T14:21:10.783Z,49.09
2023-04-18T14:23:13.542Z,49.44
2023-04-18T14:25:16.950Z,49.58
2023-04-18T14:27:19.795Z,48.66
2023-04-18T14:29:22.597Z,49.61
2023-04-18T14:31:25.987Z,49.90
2023-04-18T14:33:30.198Z,48.45
2023-04-18T14:35:33.973Z,48.49
2023-04-18T14:37:36.828Z,47.92
2023-04-18T14:39:39.747Z,48.35
2023-04-18T14:41:42.521Z,47.68
2023-04-18T14:43:45.340Z,47.82
2023-04-18T14:45:48.104Z,47.59
2023-04-18T14:47:50.960Z,47.09
2023-04-18T14:49:55.251Z,47.83
2023-04-18T14:51:58.178Z,47.86
2023-04-18T14:54:01.114Z,48.09
2023-04-18T14:56:03.974Z,47.91
2023-04-18T14:58:06.783Z,47.74
2023-04-18T15:00:12.064Z,47.66
2023-04-18T15:02:15.101Z,47.92
2023-04-18T15:04:18.131Z,47.55
2023-04-18T15:06:22.950Z,47.50
2023-04-18T15:08:25.623Z,47.33
2023-04-18T15:10:28.760Z,47.21
2023-04-18T15:12:31.949Z,48.33
2023-04-18T15:14:34.909Z,47.35
2023-04-18T15:16:39.828Z,46.62
2023-04-18T15:18:43.480Z,46.13
2023-04-18T15:20:47.299Z,47.29
2023-04-18T15:22:51.577Z,47.09
2023-04-18T15:24:54.336Z,46.74
2023-04-18T15:26:57.961Z,45.71
2023-04-18T15:29:02.641Z,46.40
2023-04-18T15:31:06.912Z,46.81
2023-04-18T15:33:09.871Z,45.86
2023-04-18T15:35:13.245Z,46.61
2023-04-18T15:37:16.081Z,46.98
2023-04-18T15:39:23.329Z,47.28
2023-04-18T15:41:27.984Z,46.72
2023-04-18T15:43:30.788Z,45.89
2023-04-18T15:45:34.343Z,45.54
2023-04-18T15:47:37.309Z,46.08
2023-04-18T15:49:40.175Z,45.25
2023-04-18T15:51:43.052Z,45.99
2023-04-18T15:53:45.934Z,46.36
2023-04-18T15:55:50.766Z,45.97
2023-04-18T15:57:55.315Z,46.02
2023-04-18T16:00:01.510Z,46.11
2023-04-18T16:02:06.275Z,46.07
2023-04-18T16:04:09.505Z,45.76
2023-04-18T16:06:12.762Z,44.95
2023-04-18T16:08:15.748Z,45.87
2023-04-18T16:10:18.671Z,46.42
2023-04-18T16:12:22.876Z,46.06
2023-04-18T16:14:25.784Z,46.24
2023-04-18T16:16:28.957Z,45.92
2023-04-18T16:18:31.820Z,45.59
2023-04-18T16:20:34.703Z,46.30
2023-04-18T16:22:37.690Z,44.95
2023-04-18T16:24:42.085Z,45.21
2023-04-18T16:26:44.976Z,45.99
2023-04-18T16:28:49.210Z,45.55
2023-04-18T16:30:53.569Z,45.17
2023-04-18T16:32:58.449Z,44.88
2023-04-18T16:35:01.423Z,45.96
2023-04-18T16:37:04.232Z,45.89
2023-04-18T16:39:07.047Z,45.17
2023-04-18T16:41:09.937Z,45.06
2023-04-18T16:43:12.748Z,45.28
2023-04-18T16:45:17.234Z,45.18
2023-04-18T16:47:20.328Z,45.04
2023-04-18T16:49:25.172Z,46.28
2023-04-18T16:51:28.802Z,45.95
2023-04-18T16:53:31.611Z,44.71
2023-04-18T16:55:34.390Z,45.10
2023-04-18T16:57:37.212Z,44.92
2023-04-18T16:59:41.685Z,44.90
2023-04-18T17:01:46.308Z,45.13
2023-04-18T17:03:49.164Z,44.33
2023-04-18T17:05:52.013Z,45.46
2023-04-18T17:07:56.005Z,45.00
2023-04-18T17:09:58.792Z,45.45
2023-04-18T17:12:01.646Z,45.27
2023-04-18T17:14:04.731Z,45.72
2023-04-18T17:16:08.153Z,46.50
2023-04-18T17:18:12.390Z,45.38
2023-04-18T17:20:17.719Z,46.46
2023-04-18T17:22:20.601Z,46.06
2023-04-18T17:24:23.430Z,44.76
2023-04-18T17:26:27.659Z,45.08
2023-04-18T17:28:30.457Z,45.76
2023-04-18T17:30:33.609Z,45.18
2023-04-18T17:32:41.868Z,45.88
2023-04-18T17:34:46.230Z,46.11
2023-04-18T17:36:49.091Z,46.20
2023-04-18T17:38:52.046Z,47.41
2023-04-18T17:41:00.461Z,47.97
2023-04-18T17:43:03.325Z,47.85
2023-04-18T17:45:07.612Z,46.95
2023-04-18T17:47:10.705Z,47.00
2023-04-18T17:49:13.692Z,47.74
2023-04-18T17:51:19.206Z,47.24
2023-04-18T17:53:22.228Z,47.61
2023-04-18T17:55:26.113Z,48.73
2023-04-18T17:57:30.491Z,48.86
2023-04-18T17:59:37.516Z,48.84
2023-04-18T18:01:41.317Z,48.95
2023-04-18T18:03:44.596Z,49.60
2023-04-18T18:05:48.492Z,49.53
2023-04-18T18:07:54.203Z,49.62
2023-04-18T18:09:57.563Z,48.82
2023-04-18T18:12:00.579Z,49.17
2023-04-18T18:14:03.698Z,49.83
2023-04-18T18:16:07.523Z,49.53
2023-04-18T18:18:10.662Z,49.97
2023-04-18T18:20:14.472Z,50.06
2023-04-18T18:22:17.507Z,50.77
2023-04-18T18:24:22.042Z,50.69
2023-04-18T18:26:26.436Z,50.19
2023-04-18T18:28:29.342Z,50.57
2023-04-18T18:30:32.375Z,50.02
2023-04-18T18:32:35.467Z,51.42
2023-04-18T18:34:38.280Z,51.66
2023-04-18T18:36:41.114Z,50.73
2023-04-18T18:38:44.164Z,51.29
2023-04-18T18:40:48.276Z,51.11
2023-04-18T18:42:53.694Z,50.46
2023-04-18T18:44:56.489Z,50.88
2023-04-18T18:47:00.017Z,51.47
2023-04-18T18:49:02.888Z,51.06
2023-04-18T18:51:05.663Z,51.45
2023-04-18T18:53:08.560Z,51.58
2023-04-18T18:55:11.605Z,51.49
2023-04-18T18:57:15.847Z,51.99
2023-04-18T18:59:19.115Z,51.70
2023-04-18T19:01:22.129Z,52.46
2023-04-18T19:03:25.680Z,52.23
2023-04-18T19:05:28.684Z,52.40
2023-04-18T19:07:31.572Z,52.22
2023-04-18T19:09:35.141Z,52.85
2023-04-18T19:11:37.989Z,52.52
2023-04-18T19:13:42.210Z,52.37
2023-04-18T19:15:45.100Z,52.55
2023-04-18T19:17:48.034Z,52.76
2023-04-18T19:19:51.106Z,53.14
2023-04-18T19:21:54.013Z,53.08
2023-04-18T19:23:56.883Z,53.08
2023-04-18T19:25:59.670Z,53.61
2023-04-18T19:28:02.477Z,53.68
2023-04-18T19:30:08.185Z,53.43
2023-04-18T19:32:11.056Z,53.41
2023-04-18T19:34:13.927Z,53.33
2023-04-18T19:36:17.269Z,53.46
2023-04-18T19:38:20.247Z,52.61
2023-04-18T19:40:26.584Z,53.06
2023-04-18T19:42:29.481Z,53.51
2023-04-18T19:44:32.558Z,53.43
2023-04-18T19:46:36.798Z,53.74
2023-04-18T19:48:39.715Z,54.37
2023-04-18T19:50:43.118Z,53.97
2023-04-18T19:52:45.949Z,54.11
2023-04-18T19:54:48.812Z,53.74
2023-04-18T19:56:51.819Z,53.50
2023-04-18T19:58:55.176Z,54.48
2023-04-18T20:00:58.098Z,54.15
2023-04-18T20:03:02.494Z,54.69
2023-04-18T20:05:06.882Z,54.28
2023-04-18T20:07:09.822Z,54.74
2023-04-18T20:09:16.705Z,54.20
2023-04-18T20:11:20.128Z,54.98
2023-04-18T20:13:23.124Z,55.30
2023-04-18T20:15:25.898Z,55.65
2023-04-18T20:17:30.445Z,55.71
2023-04-18T20:19:34.726Z,55.08
2023-04-18T20:21:37.511Z,55.19
2023-04-18T20:23:42.025Z,55.21
2023-04-18T20:25:44.841Z,55.48
2023-04-18T20:27:48.087Z,54.82
2023-04-18T20:29:50.943Z,54.97
2023-04-18T20:31:53.759Z,54.91
2023-04-18T20:33:56.554Z,54.84
2023-04-18T20:36:01.005Z,55.11
2023-04-18T20:38:03.840Z,54.81
2023-04-18T20:40:10.936Z,55.60
2023-04-18T20:42:14.683Z,55.30
2023-04-18T20:44:19.034Z,54.73
2023-04-18T20:46:22.039Z,54.86
2023-04-18T20:48:24.879Z,55.24
2023-04-18T20:50:27.861Z,55.07
2023-04-18T20:52:32.070Z,55.69
2023-04-18T20:54:34.939Z,55.81
2023-04-18T20:56:37.974Z,56.12
2023-04-18T20:58:41.796Z,55.45
2023-04-18T21:00:44.925Z,55.27
2023-04-18T21:02:47.889Z,56.07
2023-04-18T21:04:50.940Z,55.64
2023-04-18T21:06:53.845Z,56.12
2023-04-18T21:08:58.060Z,55.84
2023-04-18T21:11:00.858Z,56.35
2023-04-18T21:13:03.693Z,56.58
2023-04-18T21:15:07.584Z,56.53
2023-04-18T21:17:10.795Z,57.03
2023-04-18T21:19:13.563Z,56.60
2023-04-18T21:21:16.401Z,56.72
2023-04-18T21:23:19.239Z,56.69
2023-04-18T21:25:23.385Z,56.57
2023-04-18T21:27:26.262Z,56.54
2023-04-18T21:29:29.136Z,56.68
2023-04-18T21:31:34.005Z,56.20
2023-04-18T21:33:36.851Z,56.61
2023-04-18T21:35:39.728Z,56.98
2023-04-18T21:37:42.852Z,56.57
2023-04-18T21:39:45.710Z,56.70
2023-04-18T21:41:49.912Z,56.60
2023-04-18T21:43:53.000Z,56.46
2023-04-18T21:45:55.853Z,57.32
2023-04-18T21:47:58.671Z,57.08
2023-04-18T21:50:01.660Z,57.40
2023-04-18T21:52:04.579Z,56.68
2023-04-18T21:54:08.378Z,57.01
2023-04-18T21:56:11.721Z,57.12
2023-04-18T21:58:15.928Z,56.98
2023-04-18T22:00:20.359Z,56.47
2023-04-18T22:02:23.390Z,56.82
2023-04-18T22:04:26.904Z,57.50
2023-04-18T22:06:30.793Z,56.97
2023-04-18T22:08:33.838Z,57.30
2023-04-18T22:10:37.141Z,56.95
2023-04-18T22:12:40.061Z,56.66
2023-04-18T22:14:48.093Z,57.12
2023-04-18T22:16:51.026Z,56.81
2023-04-18T22:18:54.030Z,56.06
2023-04-18T22:20:57.369Z,55.96
2023-04-18T22:23:00.401Z,56.55
2023-04-18T22:25:03.559Z,56.60
2023-04-18T22:27:06.424Z,56.24
2023-04-18T22:29:09.248Z,56.54
2023-04-18T22:31:14.598Z,56.76
2023-04-18T22:33:17.505Z,57.45
2023-04-18T22:35:20.774Z,57.34
2023-04-18T22:37:23.553Z,57.08
2023-04-18T22:39:26.782Z,57.19
2023-04-18T22:41:29.658Z,57.27
2023-04-18T22:43:33.425Z,56.77
2023-04-18T22:45:36.384Z,57.35
2023-04-18T22:47:40.693Z,56.96
2023-04-18T22:49:44.379Z,57.16
2023-04-18T22:51:49.707Z,57.26
2023-04-18T22:53:52.589Z,57.38
2023-04-18T22:55:55.422Z,57.20
2023-04-18T22:57:58.163Z,57.42
2023-04-18T23:00:00.901Z,57.74
2023-04-18T23:02:03.809Z,57.52
2023-04-18T23:04:08.450Z,57.79
2023-04-18T23:06:11.341Z,58.05
2023-04-18T23:08:14.194Z,57.56
2023-04-18T23:10:16.979Z,57.29
2023-04-18T23:12:19.786Z,57.69
2023-04-18T23:14:22.676Z,58.29
2023-04-18T23:16:25.549Z,58.08
2023-04-18T23:18:29.784Z,58.10
2023-04-18T23:20:33.916Z,58.18
2023-04-18T23:22:38.324Z,58.20
2023-04-18T23:24:41.046Z,58.45
2023-04-18T23:26:43.871Z,58.57
2023-04-18T23:28:46.679Z,58.60
2023-04-18T23:30:50.144Z,58.57
2023-04-18T23:32:53.010Z,58.71
2023-04-18T23:34:55.829Z,58.48
2023-04-18T23:37:00.013Z,58.00
2023-04-18T23:39:02.933Z,58.30
2023-04-18T23:41:05.868Z,58.72
2023-04-18T23:43:08.655Z,59.58
2023-04-18T23:45:12.404Z,59.22
2023-04-18T23:47:15.261Z,58.71
2023-04-18T23:49:19.075Z,58.82
2023-04-18T23:51:22.324Z,58.99
2023-04-18T23:53:26.511Z,58.66
2023-04-18T23:55:29.759Z,58.05
2023-04-18T23:57:32.583Z,58.45
2023-04-18T23:59:35.401Z,59.21
